sensor_id;sensor_type;location;lat;lon;timestamp;P1;durP1;ratioP1;P2;durP2;ratioP2
75941;SDS011;64622;46.220;19.878;2023-05-07T00:00:12;10.77;;;5.07;;
75941;SDS011;64622;46.220;19.878;2023-05-07T00:02:41;11.90;;;5.37;;
75941;SDS011;64622;46.220;19.878;2023-05-07T00:05:09;12.25;;;5.30;;
75941;SDS011;64622;46.220;19.878;2023-05-07T00:07:35;11.07;;;5.20;;
75941;SDS011;64622;46.220;19.878;2023-05-07T00:10:03;12.65;;;5.93;;
75941;SDS011;64622;46.220;19.878;2023-05-07T00:12:32;9.93;;;5.20;;
75941;SDS011;64622;46.220;19.878;2023-05-07T00:15:02;11.38;;;5.30;;
75941;SDS011;64622;46.220;19.878;2023-05-07T00:17:30;12.98;;;5.07;;
75941;SDS011;64622;46.220;19.878;2023-05-07T00:19:56;13.57;;;5.40;;
75941;SDS011;64622;46.220;19.878;2023-05-07T00:22:23;16.23;;;5.40;;
75941;SDS011;64622;46.220;19.878;2023-05-07T00:24:50;12.57;;;5.30;;
75941;SDS011;64622;46.220;19.878;2023-05-07T00:27:16;11.45;;;5.40;;
75941;SDS011;64622;46.220;19.878;2023-05-07T00:29:42;12.02;;;5.20;;
75941;SDS011;64622;46.220;19.878;2023-05-07T00:32:10;13.43;;;5.10;;
75941;SDS011;64622;46.220;19.878;2023-05-07T00:34:36;13.45;;;5.68;;
75941;SDS011;64622;46.220;19.878;2023-05-07T00:37:03;11.73;;;5.53;;
75941;SDS011;64622;46.220;19.878;2023-05-07T00:39:30;11.07;;;5.18;;
75941;SDS011;64622;46.220;19.878;2023-05-07T00:41:56;12.75;;;5.03;;
75941;SDS011;64622;46.220;19.878;2023-05-07T00:44:23;14.83;;;5.47;;
75941;SDS011;64622;46.220;19.878;2023-05-07T00:46:50;11.45;;;5.28;;
75941;SDS011;64622;46.220;19.878;2023-05-07T00:49:16;10.30;;;4.97;;
75941;SDS011;64622;46.220;19.878;2023-05-07T00:51:44;10.77;;;4.80;;
75941;SDS011;64622;46.220;19.878;2023-05-07T00:54:11;11.77;;;5.15;;
75941;SDS011;64622;46.220;19.878;2023-05-07T00:56:39;11.30;;;5.33;;
75941;SDS011;64622;46.220;19.878;2023-05-07T00:59:06;10.32;;;5.25;;
75941;SDS011;64622;46.220;19.878;2023-05-07T01:01:33;10.82;;;5.43;;
75941;SDS011;64622;46.220;19.878;2023-05-07T01:03:59;11.52;;;4.75;;
75941;SDS011;64622;46.220;19.878;2023-05-07T01:06:26;13.73;;;5.43;;
75941;SDS011;64622;46.220;19.878;2023-05-07T01:08:55;11.40;;;5.63;;
75941;SDS011;64622;46.220;19.878;2023-05-07T01:11:23;11.10;;;5.62;;
75941;SDS011;64622;46.220;19.878;2023-05-07T01:13:51;10.13;;;4.80;;
75941;SDS011;64622;46.220;19.878;2023-05-07T01:16:18;12.13;;;5.03;;
75941;SDS011;64622;46.220;19.878;2023-05-07T01:18:46;14.25;;;5.05;;
75941;SDS011;64622;46.220;19.878;2023-05-07T01:21:15;10.83;;;5.00;;
75941;SDS011;64622;46.220;19.878;2023-05-07T01:23:44;10.63;;;5.50;;
75941;SDS011;64622;46.220;19.878;2023-05-07T01:26:12;10.75;;;4.95;;
75941;SDS011;64622;46.220;19.878;2023-05-07T01:28:38;10.45;;;5.32;;
75941;SDS011;64622;46.220;19.878;2023-05-07T01:31:05;11.12;;;5.10;;
75941;SDS011;64622;46.220;19.878;2023-05-07T01:33:34;10.27;;;5.00;;
75941;SDS011;64622;46.220;19.878;2023-05-07T01:36:05;9.95;;;5.05;;
75941;SDS011;64622;46.220;19.878;2023-05-07T01:38:36;11.25;;;5.20;;
75941;SDS011;64622;46.220;19.878;2023-05-07T01:41:03;10.25;;;5.07;;
75941;SDS011;64622;46.220;19.878;2023-05-07T01:43:31;9.90;;;5.32;;
75941;SDS011;64622;46.220;19.878;2023-05-07T01:45:57;10.37;;;5.30;;
75941;SDS011;64622;46.220;19.878;2023-05-07T01:48:26;11.27;;;5.20;;
75941;SDS011;64622;46.220;19.878;2023-05-07T01:50:53;10.80;;;5.10;;
75941;SDS011;64622;46.220;19.878;2023-05-07T01:53:21;10.73;;;5.90;;
75941;SDS011;64622;46.220;19.878;2023-05-07T01:55:48;11.00;;;5.07;;
75941;SDS011;64622;46.220;19.878;2023-05-07T01:58:15;11.30;;;5.27;;
75941;SDS011;64622;46.220;19.878;2023-05-07T02:00:42;10.98;;;5.30;;
75941;SDS011;64622;46.220;19.878;2023-05-07T02:03:09;11.30;;;5.43;;
75941;SDS011;64622;46.220;19.878;2023-05-07T02:05:36;11.48;;;5.32;;
75941;SDS011;64622;46.220;19.878;2023-05-07T02:08:03;10.88;;;5.40;;
75941;SDS011;64622;46.220;19.878;2023-05-07T02:10:30;10.73;;;5.43;;
75941;SDS011;64622;46.220;19.878;2023-05-07T02:12:58;11.27;;;5.12;;
75941;SDS011;64622;46.220;19.878;2023-05-07T02:15:27;11.15;;;5.68;;
75941;SDS011;64622;46.220;19.878;2023-05-07T02:18:00;11.20;;;5.93;;
75941;SDS011;64622;46.220;19.878;2023-05-07T02:20:30;11.70;;;5.72;;
75941;SDS011;64622;46.220;19.878;2023-05-07T02:22:57;12.07;;;5.30;;
75941;SDS011;64622;46.220;19.878;2023-05-07T02:25:24;13.70;;;5.90;;
75941;SDS011;64622;46.220;19.878;2023-05-07T02:27:51;11.25;;;6.12;;
75941;SDS011;64622;46.220;19.878;2023-05-07T02:30:18;12.05;;;6.00;;
75941;SDS011;64622;46.220;19.878;2023-05-07T02:32:47;14.10;;;6.55;;
75941;SDS011;64622;46.220;19.878;2023-05-07T02:35:14;11.57;;;6.10;;
75941;SDS011;64622;46.220;19.878;2023-05-07T02:37:40;11.38;;;6.18;;
75941;SDS011;64622;46.220;19.878;2023-05-07T02:40:07;15.00;;;6.05;;
75941;SDS011;64622;46.220;19.878;2023-05-07T02:42:34;11.57;;;5.85;;
75941;SDS011;64622;46.220;19.878;2023-05-07T02:45:01;13.75;;;5.65;;
75941;SDS011;64622;46.220;19.878;2023-05-07T02:47:29;11.77;;;5.80;;
75941;SDS011;64622;46.220;19.878;2023-05-07T02:49:57;13.25;;;5.90;;
75941;SDS011;64622;46.220;19.878;2023-05-07T02:52:23;13.75;;;6.25;;
75941;SDS011;64622;46.220;19.878;2023-05-07T02:54:50;12.65;;;6.20;;
75941;SDS011;64622;46.220;19.878;2023-05-07T02:57:17;13.62;;;6.07;;
75941;SDS011;64622;46.220;19.878;2023-05-07T02:59:44;11.37;;;5.57;;
75941;SDS011;64622;46.220;19.878;2023-05-07T03:02:12;12.57;;;5.93;;
75941;SDS011;64622;46.220;19.878;2023-05-07T03:04:39;13.88;;;6.05;;
75941;SDS011;64622;46.220;19.878;2023-05-07T03:07:06;14.45;;;6.22;;
75941;SDS011;64622;46.220;19.878;2023-05-07T03:09:32;11.82;;;6.20;;
75941;SDS011;64622;46.220;19.878;2023-05-07T03:11:59;12.43;;;6.23;;
75941;SDS011;64622;46.220;19.878;2023-05-07T03:14:28;17.40;;;6.18;;
75941;SDS011;64622;46.220;19.878;2023-05-07T03:16:54;12.20;;;6.28;;
75941;SDS011;64622;46.220;19.878;2023-05-07T03:19:21;12.90;;;6.10;;
75941;SDS011;64622;46.220;19.878;2023-05-07T03:21:48;11.57;;;6.25;;
75941;SDS011;64622;46.220;19.878;2023-05-07T03:24:15;13.70;;;5.57;;
75941;SDS011;64622;46.220;19.878;2023-05-07T03:26:41;13.57;;;6.18;;
75941;SDS011;64622;46.220;19.878;2023-05-07T03:29:07;14.70;;;6.47;;
75941;SDS011;64622;46.220;19.878;2023-05-07T03:31:34;12.05;;;6.47;;
75941;SDS011;64622;46.220;19.878;2023-05-07T03:34:01;15.13;;;6.60;;
75941;SDS011;64622;46.220;19.878;2023-05-07T03:36:28;14.73;;;6.60;;
75941;SDS011;64622;46.220;19.878;2023-05-07T03:38:56;13.73;;;6.85;;
75941;SDS011;64622;46.220;19.878;2023-05-07T03:41:22;14.57;;;7.03;;
75941;SDS011;64622;46.220;19.878;2023-05-07T03:43:49;19.20;;;7.45;;
75941;SDS011;64622;46.220;19.878;2023-05-07T03:46:16;12.07;;;6.85;;
75941;SDS011;64622;46.220;19.878;2023-05-07T03:48:43;13.27;;;6.73;;
75941;SDS011;64622;46.220;19.878;2023-05-07T03:51:11;14.02;;;6.72;;
75941;SDS011;64622;46.220;19.878;2023-05-07T03:53:38;14.55;;;6.85;;
75941;SDS011;64622;46.220;19.878;2023-05-07T03:56:05;15.75;;;6.55;;
75941;SDS011;64622;46.220;19.878;2023-05-07T03:58:32;15.55;;;6.93;;
75941;SDS011;64622;46.220;19.878;2023-05-07T04:00:59;13.00;;;6.37;;
75941;SDS011;64622;46.220;19.878;2023-05-07T04:03:26;15.13;;;7.22;;
75941;SDS011;64622;46.220;19.878;2023-05-07T04:05:53;11.65;;;6.30;;
75941;SDS011;64622;46.220;19.878;2023-05-07T04:08:20;12.88;;;5.80;;
75941;SDS011;64622;46.220;19.878;2023-05-07T04:10:47;13.48;;;6.78;;
75941;SDS011;64622;46.220;19.878;2023-05-07T04:13:13;13.03;;;6.53;;
75941;SDS011;64622;46.220;19.878;2023-05-07T04:15:41;11.60;;;6.20;;
75941;SDS011;64622;46.220;19.878;2023-05-07T04:18:08;12.05;;;5.95;;
75941;SDS011;64622;46.220;19.878;2023-05-07T04:20:34;14.57;;;6.10;;
75941;SDS011;64622;46.220;19.878;2023-05-07T04:23:05;16.30;;;5.97;;
75941;SDS011;64622;46.220;19.878;2023-05-07T04:25:32;12.53;;;5.77;;
75941;SDS011;64622;46.220;19.878;2023-05-07T04:28:00;10.55;;;5.82;;
75941;SDS011;64622;46.220;19.878;2023-05-07T04:30:27;12.77;;;5.85;;
75941;SDS011;64622;46.220;19.878;2023-05-07T04:32:54;11.00;;;5.72;;
75941;SDS011;64622;46.220;19.878;2023-05-07T04:35:20;12.75;;;5.82;;
75941;SDS011;64622;46.220;19.878;2023-05-07T04:37:47;10.33;;;5.53;;
75941;SDS011;64622;46.220;19.878;2023-05-07T04:40:14;10.43;;;5.37;;
75941;SDS011;64622;46.220;19.878;2023-05-07T04:42:42;11.55;;;5.90;;
75941;SDS011;64622;46.220;19.878;2023-05-07T04:45:09;11.00;;;5.72;;
75941;SDS011;64622;46.220;19.878;2023-05-07T04:47:37;11.05;;;5.70;;
75941;SDS011;64622;46.220;19.878;2023-05-07T04:50:03;13.67;;;5.97;;
75941;SDS011;64622;46.220;19.878;2023-05-07T04:52:31;11.60;;;5.25;;
75941;SDS011;64622;46.220;19.878;2023-05-07T04:55:01;11.85;;;5.43;;
75941;SDS011;64622;46.220;19.878;2023-05-07T04:57:30;13.30;;;5.75;;
75941;SDS011;64622;46.220;19.878;2023-05-07T04:59:56;13.20;;;5.68;;
75941;SDS011;64622;46.220;19.878;2023-05-07T05:02:24;16.03;;;5.70;;
75941;SDS011;64622;46.220;19.878;2023-05-07T05:04:50;13.95;;;5.40;;
75941;SDS011;64622;46.220;19.878;2023-05-07T05:07:17;11.12;;;5.40;;
75941;SDS011;64622;46.220;19.878;2023-05-07T05:09:44;11.73;;;6.03;;
75941;SDS011;64622;46.220;19.878;2023-05-07T05:12:11;12.77;;;5.65;;
75941;SDS011;64622;46.220;19.878;2023-05-07T05:14:38;12.13;;;5.23;;
75941;SDS011;64622;46.220;19.878;2023-05-07T05:17:05;12.10;;;5.90;;
75941;SDS011;64622;46.220;19.878;2023-05-07T05:19:32;11.40;;;5.50;;
75941;SDS011;64622;46.220;19.878;2023-05-07T05:21:59;12.88;;;5.65;;
75941;SDS011;64622;46.220;19.878;2023-05-07T05:24:28;10.82;;;5.53;;
75941;SDS011;64622;46.220;19.878;2023-05-07T05:26:54;13.50;;;5.70;;
75941;SDS011;64622;46.220;19.878;2023-05-07T05:29:21;12.77;;;5.30;;
75941;SDS011;64622;46.220;19.878;2023-05-07T05:31:49;12.75;;;5.53;;
75941;SDS011;64622;46.220;19.878;2023-05-07T05:34:16;9.70;;;5.12;;
75941;SDS011;64622;46.220;19.878;2023-05-07T05:36:43;10.25;;;5.00;;
75941;SDS011;64622;46.220;19.878;2023-05-07T05:39:10;13.67;;;5.30;;
75941;SDS011;64622;46.220;19.878;2023-05-07T05:41:37;13.25;;;5.60;;
75941;SDS011;64622;46.220;19.878;2023-05-07T05:44:04;10.50;;;4.87;;
75941;SDS011;64622;46.220;19.878;2023-05-07T05:46:31;10.50;;;5.12;;
75941;SDS011;64622;46.220;19.878;2023-05-07T05:48:59;9.90;;;4.90;;
75941;SDS011;64622;46.220;19.878;2023-05-07T05:51:25;12.63;;;5.60;;
75941;SDS011;64622;46.220;19.878;2023-05-07T05:53:53;11.68;;;5.60;;
75941;SDS011;64622;46.220;19.878;2023-05-07T05:56:19;12.02;;;5.22;;
75941;SDS011;64622;46.220;19.878;2023-05-07T05:58:47;11.95;;;4.78;;
75941;SDS011;64622;46.220;19.878;2023-05-07T06:01:14;10.95;;;5.20;;
75941;SDS011;64622;46.220;19.878;2023-05-07T06:03:41;14.00;;;4.70;;
75941;SDS011;64622;46.220;19.878;2023-05-07T06:06:08;12.23;;;5.00;;
75941;SDS011;64622;46.220;19.878;2023-05-07T06:08:35;10.90;;;4.85;;
75941;SDS011;64622;46.220;19.878;2023-05-07T06:11:03;10.27;;;4.10;;
75941;SDS011;64622;46.220;19.878;2023-05-07T06:13:30;11.27;;;4.28;;
75941;SDS011;64622;46.220;19.878;2023-05-07T06:15:57;10.87;;;4.70;;
75941;SDS011;64622;46.220;19.878;2023-05-07T06:18:23;9.50;;;4.43;;
75941;SDS011;64622;46.220;19.878;2023-05-07T06:20:51;9.00;;;4.35;;
75941;SDS011;64622;46.220;19.878;2023-05-07T06:23:19;13.88;;;4.72;;
75941;SDS011;64622;46.220;19.878;2023-05-07T06:25:49;10.73;;;4.82;;
75941;SDS011;64622;46.220;19.878;2023-05-07T06:28:18;11.27;;;4.60;;
75941;SDS011;64622;46.220;19.878;2023-05-07T06:30:45;10.65;;;4.43;;
75941;SDS011;64622;46.220;19.878;2023-05-07T06:33:12;10.18;;;3.75;;
75941;SDS011;64622;46.220;19.878;2023-05-07T06:35:38;9.73;;;3.97;;
75941;SDS011;64622;46.220;19.878;2023-05-07T06:38:06;9.73;;;4.53;;
75941;SDS011;64622;46.220;19.878;2023-05-07T06:40:32;8.77;;;3.77;;
75941;SDS011;64622;46.220;19.878;2023-05-07T06:42:59;9.27;;;4.45;;
75941;SDS011;64622;46.220;19.878;2023-05-07T06:45:27;11.15;;;3.97;;
75941;SDS011;64622;46.220;19.878;2023-05-07T06:47:54;8.60;;;3.90;;
75941;SDS011;64622;46.220;19.878;2023-05-07T06:50:22;10.43;;;4.28;;
75941;SDS011;64622;46.220;19.878;2023-05-07T06:52:49;9.93;;;3.70;;
75941;SDS011;64622;46.220;19.878;2023-05-07T06:55:16;10.20;;;3.90;;
75941;SDS011;64622;46.220;19.878;2023-05-07T06:57:43;11.85;;;4.00;;
75941;SDS011;64622;46.220;19.878;2023-05-07T07:00:10;10.50;;;4.07;;
75941;SDS011;64622;46.220;19.878;2023-05-07T07:02:40;8.52;;;3.42;;
75941;SDS011;64622;46.220;19.878;2023-05-07T07:05:08;9.57;;;3.83;;
75941;SDS011;64622;46.220;19.878;2023-05-07T07:07:35;8.57;;;3.30;;
75941;SDS011;64622;46.220;19.878;2023-05-07T07:10:02;10.00;;;3.97;;
75941;SDS011;64622;46.220;19.878;2023-05-07T07:12:31;9.13;;;4.20;;
75941;SDS011;64622;46.220;19.878;2023-05-07T07:14:58;10.38;;;3.58;;
75941;SDS011;64622;46.220;19.878;2023-05-07T07:17:25;9.20;;;3.70;;
75941;SDS011;64622;46.220;19.878;2023-05-07T07:19:55;8.10;;;3.90;;
75941;SDS011;64622;46.220;19.878;2023-05-07T07:22:22;10.18;;;3.45;;
75941;SDS011;64622;46.220;19.878;2023-05-07T07:24:49;9.82;;;3.92;;
75941;SDS011;64622;46.220;19.878;2023-05-07T07:27:17;9.90;;;3.45;;
75941;SDS011;64622;46.220;19.878;2023-05-07T07:29:44;8.93;;;3.30;;
75941;SDS011;64622;46.220;19.878;2023-05-07T07:32:11;9.70;;;3.35;;
75941;SDS011;64622;46.220;19.878;2023-05-07T07:34:39;9.45;;;3.60;;
75941;SDS011;64622;46.220;19.878;2023-05-07T07:37:06;8.57;;;3.30;;
75941;SDS011;64622;46.220;19.878;2023-05-07T07:39:33;9.95;;;3.28;;
75941;SDS011;64622;46.220;19.878;2023-05-07T07:42:00;10.33;;;3.30;;
75941;SDS011;64622;46.220;19.878;2023-05-07T07:44:28;7.97;;;3.15;;
75941;SDS011;64622;46.220;19.878;2023-05-07T07:46:55;10.93;;;3.65;;
75941;SDS011;64622;46.220;19.878;2023-05-07T07:49:23;8.38;;;3.08;;
75941;SDS011;64622;46.220;19.878;2023-05-07T07:51:49;8.38;;;3.25;;
75941;SDS011;64622;46.220;19.878;2023-05-07T07:54:18;10.70;;;3.57;;
75941;SDS011;64622;46.220;19.878;2023-05-07T07:56:45;8.15;;;2.87;;
75941;SDS011;64622;46.220;19.878;2023-05-07T07:59:12;8.18;;;3.08;;
75941;SDS011;64622;46.220;19.878;2023-05-07T08:01:40;9.95;;;2.78;;
75941;SDS011;64622;46.220;19.878;2023-05-07T08:04:07;7.95;;;2.78;;
75941;SDS011;64622;46.220;19.878;2023-05-07T08:06:35;11.97;;;3.20;;
75941;SDS011;64622;46.220;19.878;2023-05-07T08:09:02;10.68;;;3.05;;
75941;SDS011;64622;46.220;19.878;2023-05-07T08:11:29;9.93;;;3.00;;
75941;SDS011;64622;46.220;19.878;2023-05-07T08:13:56;8.95;;;2.90;;
75941;SDS011;64622;46.220;19.878;2023-05-07T08:16:24;7.82;;;3.22;;
75941;SDS011;64622;46.220;19.878;2023-05-07T08:18:53;7.43;;;3.00;;
75941;SDS011;64622;46.220;19.878;2023-05-07T08:21:19;7.87;;;2.85;;
75941;SDS011;64622;46.220;19.878;2023-05-07T08:23:46;7.65;;;2.95;;
75941;SDS011;64622;46.220;19.878;2023-05-07T08:26:13;7.25;;;2.72;;
75941;SDS011;64622;46.220;19.878;2023-05-07T08:28:39;8.43;;;2.92;;
75941;SDS011;64622;46.220;19.878;2023-05-07T08:31:07;10.07;;;2.93;;
75941;SDS011;64622;46.220;19.878;2023-05-07T08:33:35;9.43;;;2.78;;
75941;SDS011;64622;46.220;19.878;2023-05-07T08:36:02;14.95;;;3.28;;
75941;SDS011;64622;46.220;19.878;2023-05-07T08:38:29;14.65;;;2.62;;
75941;SDS011;64622;46.220;19.878;2023-05-07T08:40:56;7.65;;;2.65;;
75941;SDS011;64622;46.220;19.878;2023-05-07T08:43:22;8.47;;;2.67;;
75941;SDS011;64622;46.220;19.878;2023-05-07T08:45:53;6.68;;;2.55;;
75941;SDS011;64622;46.220;19.878;2023-05-07T08:48:25;7.85;;;2.60;;
75941;SDS011;64622;46.220;19.878;2023-05-07T08:50:53;7.82;;;2.70;;
75941;SDS011;64622;46.220;19.878;2023-05-07T08:53:20;8.15;;;2.97;;
75941;SDS011;64622;46.220;19.878;2023-05-07T08:55:48;10.67;;;2.50;;
75941;SDS011;64622;46.220;19.878;2023-05-07T08:58:15;8.45;;;2.70;;
75941;SDS011;64622;46.220;19.878;2023-05-07T09:00:43;8.35;;;2.70;;
75941;SDS011;64622;46.220;19.878;2023-05-07T09:03:11;9.05;;;2.80;;
75941;SDS011;64622;46.220;19.878;2023-05-07T09:05:39;8.38;;;2.67;;
75941;SDS011;64622;46.220;19.878;2023-05-07T09:08:07;9.90;;;2.73;;
75941;SDS011;64622;46.220;19.878;2023-05-07T09:10:35;7.82;;;2.30;;
75941;SDS011;64622;46.220;19.878;2023-05-07T09:13:02;7.15;;;2.70;;
75941;SDS011;64622;46.220;19.878;2023-05-07T09:15:29;8.68;;;2.58;;
75941;SDS011;64622;46.220;19.878;2023-05-07T09:18:00;8.43;;;2.67;;
75941;SDS011;64622;46.220;19.878;2023-05-07T09:20:30;7.17;;;2.30;;
75941;SDS011;64622;46.220;19.878;2023-05-07T09:22:57;7.05;;;2.40;;
75941;SDS011;64622;46.220;19.878;2023-05-07T09:25:33;6.85;;;2.42;;
75941;SDS011;64622;46.220;19.878;2023-05-07T09:28:02;7.00;;;2.20;;
75941;SDS011;64622;46.220;19.878;2023-05-07T09:30:31;8.45;;;2.35;;
75941;SDS011;64622;46.220;19.878;2023-05-07T09:32:59;7.30;;;2.60;;
75941;SDS011;64622;46.220;19.878;2023-05-07T09:35:27;7.35;;;2.78;;
75941;SDS011;64622;46.220;19.878;2023-05-07T09:37:55;7.60;;;2.30;;
75941;SDS011;64622;46.220;19.878;2023-05-07T09:40:24;8.13;;;2.42;;
75941;SDS011;64622;46.220;19.878;2023-05-07T09:42:53;9.38;;;2.50;;
75941;SDS011;64622;46.220;19.878;2023-05-07T09:45:26;7.53;;;2.30;;
75941;SDS011;64622;46.220;19.878;2023-05-07T09:47:56;7.50;;;2.50;;
75941;SDS011;64622;46.220;19.878;2023-05-07T09:50:28;9.13;;;2.78;;
75941;SDS011;64622;46.220;19.878;2023-05-07T09:53:00;9.77;;;2.28;;
75941;SDS011;64622;46.220;19.878;2023-05-07T09:55:28;10.48;;;2.65;;
75941;SDS011;64622;46.220;19.878;2023-05-07T09:57:55;8.63;;;2.40;;
75941;SDS011;64622;46.220;19.878;2023-05-07T10:00:26;8.27;;;2.60;;
75941;SDS011;64622;46.220;19.878;2023-05-07T10:02:57;8.02;;;2.85;;
75941;SDS011;64622;46.220;19.878;2023-05-07T10:05:27;10.00;;;2.97;;
75941;SDS011;64622;46.220;19.878;2023-05-07T10:07:55;10.30;;;3.03;;
75941;SDS011;64622;46.220;19.878;2023-05-07T10:10:23;8.47;;;3.00;;
75941;SDS011;64622;46.220;19.878;2023-05-07T10:12:51;9.38;;;2.97;;
75941;SDS011;64622;46.220;19.878;2023-05-07T10:15:19;9.70;;;3.00;;
75941;SDS011;64622;46.220;19.878;2023-05-07T10:17:46;7.37;;;3.00;;
75941;SDS011;64622;46.220;19.878;2023-05-07T10:20:15;9.23;;;3.03;;
75941;SDS011;64622;46.220;19.878;2023-05-07T10:22:45;7.77;;;2.80;;
75941;SDS011;64622;46.220;19.878;2023-05-07T10:25:22;7.15;;;2.55;;
75941;SDS011;64622;46.220;19.878;2023-05-07T10:27:55;9.88;;;2.85;;
75941;SDS011;64622;46.220;19.878;2023-05-07T10:33:11;7.62;;;2.97;;
75941;SDS011;64622;46.220;19.878;2023-05-07T10:35:42;9.87;;;2.77;;
75941;SDS011;64622;46.220;19.878;2023-05-07T10:38:11;8.70;;;2.92;;
75941;SDS011;64622;46.220;19.878;2023-05-07T10:40:39;12.52;;;3.22;;
75941;SDS011;64622;46.220;19.878;2023-05-07T10:43:06;9.00;;;3.05;;
75941;SDS011;64622;46.220;19.878;2023-05-07T10:45:34;8.77;;;3.05;;
75941;SDS011;64622;46.220;19.878;2023-05-07T10:50:31;9.73;;;2.97;;
75941;SDS011;64622;46.220;19.878;2023-05-07T10:55:45;9.38;;;3.05;;
75941;SDS011;64622;46.220;19.878;2023-05-07T10:58:24;11.68;;;3.08;;
75941;SDS011;64622;46.220;19.878;2023-05-07T11:00:56;7.63;;;3.00;;
75941;SDS011;64622;46.220;19.878;2023-05-07T11:03:25;54.75;;;5.78;;
75941;SDS011;64622;46.220;19.878;2023-05-07T11:06:09;21.05;;;4.12;;
75941;SDS011;64622;46.220;19.878;2023-05-07T11:11:17;12.93;;;6.35;;
75941;SDS011;64622;46.220;19.878;2023-05-07T11:13:48;16.00;;;6.43;;
75941;SDS011;64622;46.220;19.878;2023-05-07T11:18:48;12.98;;;8.00;;
75941;SDS011;64622;46.220;19.878;2023-05-07T11:24:08;17.92;;;9.05;;
75941;SDS011;64622;46.220;19.878;2023-05-07T11:26:49;15.17;;;8.50;;
75941;SDS011;64622;46.220;19.878;2023-05-07T11:29:17;13.70;;;8.20;;
75941;SDS011;64622;46.220;19.878;2023-05-07T11:31:49;12.55;;;7.62;;
75941;SDS011;64622;46.220;19.878;2023-05-07T11:34:25;8.35;;;4.50;;
75941;SDS011;64622;46.220;19.878;2023-05-07T11:36:53;10.55;;;4.78;;
75941;SDS011;64622;46.220;19.878;2023-05-07T11:39:26;11.03;;;4.83;;
75941;SDS011;64622;46.220;19.878;2023-05-07T11:41:53;9.45;;;3.90;;
75941;SDS011;64622;46.220;19.878;2023-05-07T11:44:20;9.38;;;3.95;;
75941;SDS011;64622;46.220;19.878;2023-05-07T11:46:47;11.00;;;3.10;;
75941;SDS011;64622;46.220;19.878;2023-05-07T11:49:15;7.90;;;3.47;;
75941;SDS011;64622;46.220;19.878;2023-05-07T11:51:43;9.00;;;3.60;;
75941;SDS011;64622;46.220;19.878;2023-05-07T11:54:11;8.82;;;3.87;;
75941;SDS011;64622;46.220;19.878;2023-05-07T11:56:41;7.90;;;3.70;;
75941;SDS011;64622;46.220;19.878;2023-05-07T11:59:07;9.75;;;3.70;;
75941;SDS011;64622;46.220;19.878;2023-05-07T12:01:35;8.30;;;4.07;;
75941;SDS011;64622;46.220;19.878;2023-05-07T12:04:02;8.83;;;4.00;;
75941;SDS011;64622;46.220;19.878;2023-05-07T12:06:29;8.13;;;3.80;;
75941;SDS011;64622;46.220;19.878;2023-05-07T12:08:57;10.07;;;3.72;;
75941;SDS011;64622;46.220;19.878;2023-05-07T12:11:24;10.38;;;4.60;;
75941;SDS011;64622;46.220;19.878;2023-05-07T12:13:51;8.45;;;4.43;;
75941;SDS011;64622;46.220;19.878;2023-05-07T12:16:20;9.40;;;5.47;;
75941;SDS011;64622;46.220;19.878;2023-05-07T12:18:48;8.50;;;4.15;;
75941;SDS011;64622;46.220;19.878;2023-05-07T12:21:15;10.63;;;4.97;;
75941;SDS011;64622;46.220;19.878;2023-05-07T12:23:43;9.50;;;5.45;;
75941;SDS011;64622;46.220;19.878;2023-05-07T12:26:11;11.27;;;5.78;;
75941;SDS011;64622;46.220;19.878;2023-05-07T12:28:37;11.47;;;5.17;;
75941;SDS011;64622;46.220;19.878;2023-05-07T12:31:05;10.60;;;5.05;;
75941;SDS011;64622;46.220;19.878;2023-05-07T12:33:32;12.32;;;6.05;;
75941;SDS011;64622;46.220;19.878;2023-05-07T12:36:02;11.32;;;4.93;;
75941;SDS011;64622;46.220;19.878;2023-05-07T12:38:35;10.27;;;5.20;;
75941;SDS011;64622;46.220;19.878;2023-05-07T12:41:03;10.87;;;5.37;;
75941;SDS011;64622;46.220;19.878;2023-05-07T12:43:33;9.95;;;5.25;;
75941;SDS011;64622;46.220;19.878;2023-05-07T12:46:01;9.98;;;5.00;;
75941;SDS011;64622;46.220;19.878;2023-05-07T12:48:31;11.40;;;5.70;;
75941;SDS011;64622;46.220;19.878;2023-05-07T12:51:01;11.30;;;5.10;;
75941;SDS011;64622;46.220;19.878;2023-05-07T12:53:30;9.20;;;5.00;;
75941;SDS011;64622;46.220;19.878;2023-05-07T12:55:57;11.38;;;5.22;;
75941;SDS011;64622;46.220;19.878;2023-05-07T12:58:30;8.82;;;4.97;;
75941;SDS011;64622;46.220;19.878;2023-05-07T13:01:00;9.40;;;4.30;;
75941;SDS011;64622;46.220;19.878;2023-05-07T13:03:32;10.13;;;4.18;;
75941;SDS011;64622;46.220;19.878;2023-05-07T13:06:01;8.63;;;3.83;;
75941;SDS011;64622;46.220;19.878;2023-05-07T13:08:36;9.50;;;3.72;;
75941;SDS011;64622;46.220;19.878;2023-05-07T13:11:07;11.98;;;4.15;;
75941;SDS011;64622;46.220;19.878;2023-05-07T13:13:35;8.68;;;3.67;;
75941;SDS011;64622;46.220;19.878;2023-05-07T13:16:05;8.98;;;3.83;;
75941;SDS011;64622;46.220;19.878;2023-05-07T13:18:31;9.33;;;4.07;;
75941;SDS011;64622;46.220;19.878;2023-05-07T13:21:00;9.02;;;3.75;;
75941;SDS011;64622;46.220;19.878;2023-05-07T13:23:27;9.15;;;4.10;;
75941;SDS011;64622;46.220;19.878;2023-05-07T13:25:55;9.00;;;3.60;;
75941;SDS011;64622;46.220;19.878;2023-05-07T13:28:25;9.93;;;3.50;;
75941;SDS011;64622;46.220;19.878;2023-05-07T13:30:52;6.90;;;2.87;;
75941;SDS011;64622;46.220;19.878;2023-05-07T13:33:20;8.25;;;2.97;;
75941;SDS011;64622;46.220;19.878;2023-05-07T13:35:47;7.82;;;3.60;;
75941;SDS011;64622;46.220;19.878;2023-05-07T13:38:13;7.00;;;3.30;;
75941;SDS011;64622;46.220;19.878;2023-05-07T13:40:41;8.07;;;3.40;;
75941;SDS011;64622;46.220;19.878;2023-05-07T13:43:09;8.97;;;3.60;;
75941;SDS011;64622;46.220;19.878;2023-05-07T13:45:37;7.60;;;3.30;;
75941;SDS011;64622;46.220;19.878;2023-05-07T13:48:03;8.05;;;3.50;;
75941;SDS011;64622;46.220;19.878;2023-05-07T13:50:31;8.63;;;3.45;;
75941;SDS011;64622;46.220;19.878;2023-05-07T13:52:57;6.57;;;2.75;;
75941;SDS011;64622;46.220;19.878;2023-05-07T13:55:24;7.77;;;3.20;;
75941;SDS011;64622;46.220;19.878;2023-05-07T13:57:58;7.80;;;3.45;;
75941;SDS011;64622;46.220;19.878;2023-05-07T14:00:27;7.05;;;3.45;;
75941;SDS011;64622;46.220;19.878;2023-05-07T14:02:55;10.88;;;4.35;;
75941;SDS011;64622;46.220;19.878;2023-05-07T14:05:23;8.40;;;4.50;;
75941;SDS011;64622;46.220;19.878;2023-05-07T14:07:51;9.47;;;4.87;;
75941;SDS011;64622;46.220;19.878;2023-05-07T14:10:18;9.55;;;4.68;;
75941;SDS011;64622;46.220;19.878;2023-05-07T14:12:45;9.85;;;4.10;;
75941;SDS011;64622;46.220;19.878;2023-05-07T14:15:13;10.18;;;5.20;;
75941;SDS011;64622;46.220;19.878;2023-05-07T14:17:40;9.30;;;4.78;;
75941;SDS011;64622;46.220;19.878;2023-05-07T14:20:07;9.00;;;5.33;;
75941;SDS011;64622;46.220;19.878;2023-05-07T14:22:35;10.07;;;4.22;;
75941;SDS011;64622;46.220;19.878;2023-05-07T14:25:01;8.95;;;4.60;;
75941;SDS011;64622;46.220;19.878;2023-05-07T14:27:28;7.28;;;3.85;;
75941;SDS011;64622;46.220;19.878;2023-05-07T14:29:55;8.52;;;4.80;;
75941;SDS011;64622;46.220;19.878;2023-05-07T14:32:21;8.43;;;4.30;;
75941;SDS011;64622;46.220;19.878;2023-05-07T14:34:48;9.57;;;4.70;;
75941;SDS011;64622;46.220;19.878;2023-05-07T14:37:16;8.27;;;4.07;;
75941;SDS011;64622;46.220;19.878;2023-05-07T14:39:44;9.40;;;4.35;;
75941;SDS011;64622;46.220;19.878;2023-05-07T14:42:11;9.02;;;4.62;;
75941;SDS011;64622;46.220;19.878;2023-05-07T14:44:38;9.50;;;5.07;;